Timeline UpdatesTrip UpdatesNews PostsPvt PostsTravel TipsAdmin PostsConv PostsFollowed PostsChat RequestsBlog PostsPNR Posts

Disclaimer
Search
 
 
Tue Jul 29, 2014 08:04:42 ISTHomeTrainsΣChainsAtlasPNRForumGalleryNewsFAQTripsMembersLoginFeedback
No Recent News for this Train
Other Trains in the News **new
Latest...
Cancelled from 04.01.2013 to 17.02.2013
Sat Jan 05, 2013 (01:09AM)
⇐ Return Journey: Train# 54642

54641/Delhi Firozpur Passenger (UnReserved)

Sep 11 2013 (12:36PM)
Change Departure Station:
Change Arrival Station:
Post a Train Travel TipPost a Train Travel Tip **new
Post a Comment/Question/Picture/VideoPost a Comment/Question/Picture/Video
Pantry/Catering
✕ NO Pantry Car
✕ NO Catering
RSA - Rake Sharing
Rake Sharing With 14629/30 FZR-LDH Satluj Express and 14601/02 SGNR-FZR Express
Rake/Coach Composition
LOCO-SLRD-GS-GS-GS-GS-GS-GS-GS-GS-GS-GS-GS-GS-GS-GS-SLRD
Loco
TKD WDP-1
News    PNR    Forum    Time-Table    Availability    Fare Chart    Map    Arr/Dep History    Trips    Gallery    ΣChains    X/O    Timeline    
Travel Time: 10h 20m    40 halts    Distance: 316 km    Avg Speed: 30 km/hr
Type: Passenger
Zone: NR/Northern
Departs @ 09:15 (Avg 28m late)
Platform# ???
SMTWTFS
Rohtak Junction/ROK 
Arrives @ 19:35 (Avg 8m late)
Platform# 1
SMTWTFS
Firozpur Cantt. Junction/FZR 

40 halts. 43 intermediate Stations between Rohtak Junction and Firozpur Cantt. Junction

Show ALL intermediate Stations  Show Old Time-Table

#CodeStation NameX/OArrivesAvgDepartsAvgHaltPFDay#KmSpeedElevZoneAddress
1DLIOld Delhi Junction (16)  -07:10+321-70.013219mNRNear Chandni Chowk Metro Station, Delhi NCT
2DKZDelhi KishanGanj (2)  07:23+807:25+82m--1-67.221220mNRSarai Rohilla, Delhi NCT
3VVKPVivekanand Puri Halt (2)  07:30+307:31+31m--1-65.518223mNRSarai Rohilla, Delhi NCT
4DBSIDayabasti  07:35+707:36+71m--1-64.341225mNRZakhira, Delhi NCT
5SSBShakur BastiX  07:42+807:44+82m--1-60.251216mNRPitampura, Delhi NCT
6MGLPMangolpuri  07:49+1607:51+162m--1-55.939217mNROutter Ring Rd, Delhi NCT
7NNONangloiX  07:56+1807:57+181m--1-52.734219mNRJJ Colony No 1, Delhi NCT
8MQCMundka  08:02+1608:03+161m--1-49.936215mNRMundka, Delhi NCT
9GHEGhevraX  08:08+1908:09+191m--1-46.980214mNRGhevra, Delhi NCT
10BGZBahadurgarh  08:14+2208:15+231m--1-40.280220mNRBahadurgarh, Haryana
11ASEAsaudahX  08:21+2808:22+281m--1-32.245216mNRDelhi-Rohtak Corridor, Haryana
12ROHNRohed Nagar HaltX  08:29+2208:30+221m--1-26.940220mNRDelhi-Rohtak Corridor, Haryana
13SPZSampla  08:37+2908:38+291m--1-22.335222mNRSampla, Haryana
14ISMIsmaila Haryana  08:44+3008:45+301m--1-18.859221mNRNational Highway 10, Haryana
15KRZKharawarX  08:52+3108:53+321m--1-11.970222mNRKharawar, Haryana
16ABOAsthal Bohar Junction (4)  08:58+3509:00+342m--1-6.137223mNRRohtak, Haryana
17ROK»Rohtak Junction (3)»X  09:10+2809:15+285m--10.063220mNRRohtak, Haryana
18SMFSamar Gopalpur  09:25+3609:26+361m--110.666223mNRNH 71, Haryana
19KHVKarainthi  09:33+3709:34+381m--118.333222mNRNH 71, Haryana
20KZHKila ZafargarhX  09:48+3709:49+371m--126.054223mNRNH 71, Haryana
21JNAJulana  09:55+3809:56+381m--131.445226mNRJulana, Haryana
22JJTJai Jai Wanti  10:04+3810:05+381m--137.562227mNRJind, Haryana
23KIUKinanaX  10:12+3910:13+391m--144.736225mNRBrarkhera, Haryana
24BSPHBishanpur HaryanaX  10:22+3910:23+391m--150.019226mNRBishanpur, Haryana
25JINDJind Junction (3)  10:45+2711:00+2115m--157.161222mNR126102., Haryana
26BZOBarsola  11:09+2911:10+291m--166.258224mNRDistrict Jind, Haryana
27UCAUchana  11:20+3011:21+311m--175.853225mNRDistrict Jind, Haryana
28GSOGhaso  11:30+3111:31+311m--183.836231mNRDistrict Jind, Haryana
29NRWNarwana Junction (4)  11:43+2711:50+237m--191.065235mNRWay to Narwana, Haryana
30DHYDharodi  11:57+2711:58+271m--198.654233mNRMDR 111, Haryana
31DTNDhamtan Sahib  12:06+2712:07+271m--1105.846234mNRJind District, Haryana
32TUNTohana (2)  12:21+2412:22+251m--1116.532232mNRTohana, Haryana
33HMQHimmatpura  12:29+2912:30+301m--1120.225228mNRTohana, Haryana
34JHLJakhal JunctionX  12:50+2313:05+1615m--1128.750225mNRJakhal, Haryana
35BRZBareta  13:22+1713:23+191m--1142.951223mNRBareta, Punjab
36DTWDatewas  13:32+713:33+71m--1150.658225mNRBareta, Punjab
37BLZBudhlada  13:41+1813:42+211m--1158.352223mNRBudhlada, Punjab
38NPXNarindarpura  13:51+2013:52+201m--1166.063224mNRMansa, Punjab
39MSZMansa  14:00+2214:01+231m--1174.429222mNRMansa, Punjab
40SSZSadda Singhwala (1)  14:14+2114:15+221m11180.628216mNRState Highway 12A, Punjab
41KTKLKotli Kalan  14:20+1414:21+141m--1183.076219mNRState Highway 12A, Punjab
42MAURMaur  14:29+2214:30+231m--1193.134220mNRMaur Mandi, Punjab
43MASKMaisar KhanaX  14:45+1814:46+211m--1201.553215mNRState Highway 12A, Punjab
44KTFKot Fatteh  14:54+2114:55+221m--1208.672213mNRBathinda, Punjab
45KZWKatar Singhwala  15:04+2015:05+201m--1219.422211mNRState Highway 17, Punjab
46BTIBathinda Junction (6)X  15:30+1817:15+6105m51228.667208mNRBathinda, Punjab
47GNAGoneana Bhai Jagta (3)  17:26+817:28+92m--1240.949206mNRGoniana, Punjab
48CBXChand BhanX  17:37+917:38+141m--1248.358211mNRJaitu, Punjab
49GJUTGangsar Jaitu (3)  17:45+1517:47+172m--1255.157207mNRJaitu, Punjab
50AJTMAjitgill Matta (1)  17:52+1317:53+131m11259.841209mNRKotkapura Jaitu Rd, Punjab
51RLSRomana Albel Singh (1)  17:58+1717:59+211m11263.298208mNRKotkapura Jaitu Rd, Punjab
52KKPKot Kapura Junction (3)  18:04+2518:08+264m11271.4310mNRKotkapura, Punjab
53GZSGiani Zail Singh SandhwanX  18:16+2618:18+292m--1275.640210mNRDistt Faridkot, Punjab
54FDKFaridkot (3)  18:31+2318:33+252m--1284.145202mNRFaridkot, Punjab
55PKZPipli Pakhi Kalan  18:41+2118:42+211m--1290.163200mNRFaridkot, Punjab
56GHAGolehwala  18:49+2618:51+262m--1297.553201mNRGolehwala, Punjab
57KBUKasu Begu  19:00+2619:02+262m--1305.420198mNRKasu Begu, Punjab
58FZR•Firozpur Cantt. Junction (5)•  19:35+8-11316.4-200mNRFirozpur Cantt 152001, Punjab
Scroll to Top
Scroll to Bottom